Time;durP1;ratioP1;P1;durP2;ratioP2;P2;SDS_P1;SDS_P2;PMS_P1;PMS_P2;Temp;Humidity;BMP_temperature;BMP_pressure;BME280_temperature;BME280_humidity;BME280_pressure;Samples;Min_cycle;Max_cycle;Signal;HPM_P1;HPM_P2
2021/09/19 00:02:52;;;;;;;7.80;5.38;;;14.60;99.90;;;;;;12387503;28;20050;-89
2021/09/19 00:08:54;;;;;;;7.05;5.35;;;14.60;99.90;;;;;;12405130;28;20050;-87
2021/09/19 00:14:56;;;;;;;8.13;5.88;;;14.60;99.90;;;;;;12376093;28;20057;-89
2021/09/19 00:20:58;;;;;;;10.15;6.10;;;14.50;99.90;;;;;;12390770;28;20133;-89
2021/09/19 00:27:00;;;;;;;10.80;6.70;;;14.50;99.90;;;;;;12391892;28;20146;-87
2021/09/19 00:33:02;;;;;;;8.90;6.15;;;14.40;99.90;;;;;;12397220;28;20062;-89
2021/09/19 00:39:04;;;;;;;10.93;7.10;;;14.40;99.90;;;;;;12377140;28;20050;-87
2021/09/19 00:45:15;;;;;;;8.32;6.78;;;14.40;99.90;;;;;;12399935;28;20129;-89
2021/09/19 00:51:17;;;;;;;6.75;5.90;;;14.40;99.90;;;;;;12374967;28;20053;-88
2021/09/19 00:57:20;;;;;;;8.32;5.85;;;14.30;99.90;;;;;;12399456;28;20160;-89
2021/09/19 01:03:22;;;;;;;9.55;5.55;;;14.30;99.90;;;;;;12380817;28;20086;-87
2021/09/19 01:09:24;;;;;;;6.28;5.05;;;14.40;99.90;;;;;;12371737;28;20074;-88
2021/09/19 01:15:26;;;;;;;6.22;4.78;;;14.40;99.90;;;;;;12386082;28;20050;-89
2021/09/19 01:21:28;;;;;;;6.65;5.00;;;14.30;99.90;;;;;;12371939;28;20095;-90
2021/09/19 01:27:30;;;;;;;7.10;4.80;;;14.20;99.90;;;;;;12389450;28;20053;-89
2021/09/19 01:33:32;;;;;;;9.60;5.13;;;14.30;99.90;;;;;;12383113;28;20404;-88
2021/09/19 01:39:34;;;;;;;5.78;4.25;;;14.30;99.90;;;;;;12398820;28;20058;-88
2021/09/19 01:45:37;;;;;;;5.03;3.97;;;14.30;99.90;;;;;;12373639;28;20046;-88
2021/09/19 01:51:39;;;;;;;6.13;4.40;;;14.30;99.90;;;;;;12407605;28;20091;-90
2021/09/19 01:57:41;;;;;;;6.60;4.25;;;14.20;99.90;;;;;;12412655;28;20133;-88
2021/09/19 02:03:43;;;;;;;7.03;5.20;;;14.30;99.90;;;;;;12424695;28;20046;-88
2021/09/19 02:09:45;;;;;;;6.38;4.80;;;14.30;99.90;;;;;;12415392;28;20535;-88
2021/09/19 02:15:47;;;;;;;6.53;5.47;;;14.40;99.90;;;;;;12425870;28;20050;-88
2021/09/19 02:21:49;;;;;;;8.73;5.72;;;14.40;99.90;;;;;;12421414;28;20544;-88
2021/09/19 02:27:51;;;;;;;7.53;6.18;;;14.50;99.90;;;;;;12425527;28;20058;-88
2021/09/19 02:33:53;;;;;;;7.45;6.00;;;14.40;99.90;;;;;;12423447;28;20045;-89
2021/09/19 02:39:55;;;;;;;9.05;5.78;;;14.40;99.90;;;;;;12425670;28;20153;-88
2021/09/19 02:45:57;;;;;;;10.93;5.85;;;14.20;99.90;;;;;;12424040;28;20054;-89
2021/09/19 02:52:00;;;;;;;9.43;6.78;;;14.10;99.90;;;;;;12424021;28;20049;-87
2021/09/19 02:58:02;;;;;;;11.32;6.40;;;14.00;99.90;;;;;;12408594;28;20153;-88
2021/09/19 03:04:04;;;;;;;8.40;6.03;;;13.90;99.90;;;;;;12426678;28;20046;-88
2021/09/19 03:10:07;;;;;;;10.23;5.55;;;14.00;99.90;;;;;;12424361;28;20623;-87
2021/09/19 03:16:09;;;;;;;10.23;5.25;;;14.00;99.90;;;;;;12428329;28;20118;-88
2021/09/19 03:22:12;;;;;;;7.00;5.05;;;14.10;99.90;;;;;;12403856;28;20589;-89
2021/09/19 03:28:13;;;;;;;8.52;5.53;;;14.10;99.90;;;;;;12428857;28;20064;-88
2021/09/19 03:34:15;;;;;;;7.63;5.70;;;14.10;99.90;;;;;;12407315;28;20050;-87
2021/09/19 03:40:17;;;;;;;13.02;6.07;;;13.90;99.90;;;;;;12430512;28;20058;-89
2021/09/19 03:46:19;;;;;;;9.20;6.40;;;13.80;99.90;;;;;;12443088;28;20496;-87
2021/09/19 03:52:21;;;;;;;7.70;6.50;;;13.80;99.90;;;;;;12424794;28;20526;-88
2021/09/19 03:58:23;;;;;;;7.82;6.22;;;13.80;99.90;;;;;;12429220;28;20113;-89
2021/09/19 04:04:25;;;;;;;8.43;6.20;;;13.90;99.90;;;;;;12444978;28;20065;-87
2021/09/19 04:10:27;;;;;;;8.40;6.43;;;13.80;99.90;;;;;;12431545;28;20809;-87
2021/09/19 04:16:29;;;;;;;10.20;6.35;;;13.80;99.90;;;;;;12434611;28;20045;-87
2021/09/19 04:22:31;;;;;;;8.35;6.43;;;13.70;99.90;;;;;;12424684;28;20225;-88
2021/09/19 04:28:32;;;;;;;7.88;6.47;;;13.80;99.90;;;;;;12419265;28;20104;-89
2021/09/19 04:34:34;;;;;;;10.43;6.22;;;13.70;99.90;;;;;;12421448;28;20050;-88
2021/09/19 04:40:36;;;;;;;11.73;6.13;;;13.80;99.90;;;;;;12428636;28;20050;-88
2021/09/19 04:46:38;;;;;;;12.05;6.32;;;13.70;99.90;;;;;;12426370;28;20061;-89
2021/09/19 04:52:40;;;;;;;8.07;5.95;;;13.80;99.90;;;;;;12425158;28;20133;-87
2021/09/19 04:58:42;;;;;;;12.13;6.53;;;13.90;99.90;;;;;;12415120;28;20118;-89
2021/09/19 05:04:44;;;;;;;10.20;6.07;;;13.90;99.90;;;;;;12439649;28;20506;-88
2021/09/19 05:10:46;;;;;;;12.60;6.13;;;13.80;99.90;;;;;;12447640;28;20105;-88
2021/09/19 05:16:48;;;;;;;9.00;6.10;;;13.60;99.90;;;;;;12414157;28;21692;-87
2021/09/19 05:22:49;;;;;;;8.95;6.30;;;13.70;99.90;;;;;;12430864;28;20061;-88
2021/09/19 05:28:51;;;;;;;9.35;6.15;;;13.80;99.90;;;;;;12445536;28;20038;-88
2021/09/19 05:34:53;;;;;;;10.02;5.80;;;13.80;99.90;;;;;;12430979;28;20583;-88
2021/09/19 05:40:55;;;;;;;9.52;6.38;;;13.90;99.90;;;;;;12415475;28;20591;-88
2021/09/19 05:46:57;;;;;;;11.07;6.53;;;13.90;99.90;;;;;;12429549;28;20045;-88
2021/09/19 05:52:59;;;;;;;11.13;6.45;;;13.90;99.90;;;;;;12428919;28;20066;-88
2021/09/19 05:59:01;;;;;;;10.82;6.75;;;13.80;99.90;;;;;;12430840;28;20053;-88
2021/09/19 06:05:04;;;;;;;8.35;6.97;;;13.80;99.90;;;;;;12415349;28;20045;-88
2021/09/19 06:11:06;;;;;;;8.65;7.20;;;13.70;99.90;;;;;;12416847;28;20133;-87
2021/09/19 06:17:07;;;;;;;10.88;7.70;;;13.60;99.90;;;;;;12428582;28;20129;-87
2021/09/19 06:23:10;;;;;;;9.82;7.50;;;13.60;99.90;;;;;;12428674;28;20128;-87
2021/09/19 06:29:11;;;;;;;7.97;6.95;;;13.60;99.90;;;;;;12436369;28;20551;-88
2021/09/19 06:35:13;;;;;;;8.85;6.40;;;13.70;99.90;;;;;;12422278;28;20064;-89
2021/09/19 06:41:15;;;;;;;8.82;5.72;;;13.70;99.90;;;;;;12391418;28;20050;-88
2021/09/19 06:47:17;;;;;;;12.25;6.13;;;13.60;99.90;;;;;;12420177;28;20049;-87
2021/09/19 06:53:19;;;;;;;9.65;5.60;;;13.60;99.90;;;;;;12422360;28;20050;-88
2021/09/19 06:59:21;;;;;;;8.48;5.45;;;13.70;99.90;;;;;;12413842;28;21455;-89
2021/09/19 07:05:23;;;;;;;13.07;5.22;;;13.60;99.90;;;;;;12405282;28;20515;-88
2021/09/19 07:11:25;;;;;;;8.32;5.25;;;13.50;99.90;;;;;;12417820;28;20144;-88
2021/09/19 07:17:26;;;;;;;10.57;5.45;;;13.50;99.90;;;;;;12415007;28;20651;-88
2021/09/19 07:23:28;;;;;;;7.13;5.15;;;13.60;99.90;;;;;;12405093;28;20644;-87
2021/09/19 07:29:34;;;;;;;7.43;5.45;;;13.60;99.90;;;;;;12420489;28;20100;-89
2021/09/19 07:35:36;;;;;;;9.00;5.40;;;13.70;99.90;;;;;;12414902;28;20050;-88
2021/09/19 07:41:38;;;;;;;8.05;4.85;;;13.70;99.90;;;;;;12419260;28;20041;-88
2021/09/19 07:47:41;;;;;;;8.40;4.85;;;13.80;99.90;;;;;;12420086;28;20061;-89
2021/09/19 07:53:45;;;;;;;7.50;4.97;;;13.90;99.90;;;;;;12403198;28;20080;-89
2021/09/19 07:59:49;;;;;;;6.65;4.70;;;14.00;99.90;;;;;;12402616;28;20169;-89
2021/09/19 08:05:51;;;;;;;6.93;4.57;;;14.00;99.90;;;;;;12418876;28;20325;-90
2021/09/19 08:11:53;;;;;;;7.13;4.47;;;14.00;99.90;;;;;;12412712;28;20049;-87
2021/09/19 08:17:55;;;;;;;7.85;4.40;;;14.10;99.90;;;;;;12423972;28;20057;-89
2021/09/19 08:23:57;;;;;;;7.25;4.53;;;14.20;99.90;;;;;;12401204;28;20041;-89
2021/09/19 08:29:59;;;;;;;6.68;3.78;;;14.40;99.90;;;;;;12421895;28;20484;-88
2021/09/19 08:36:01;;;;;;;4.45;2.90;;;14.50;99.90;;;;;;12412691;28;20141;-88
2021/09/19 08:42:03;;;;;;;4.97;3.40;;;14.70;99.90;;;;;;12428926;28;20107;-87
2021/09/19 08:48:06;;;;;;;6.25;3.20;;;14.80;99.90;;;;;;12440650;28;20494;-88
2021/09/19 08:54:08;;;;;;;5.15;2.65;;;14.90;99.90;;;;;;12421466;28;20038;-89
2021/09/19 09:00:16;;;;;;;4.47;2.67;;;14.80;99.90;;;;;;12437518;28;20061;-88
2021/09/19 09:06:19;;;;;;;5.60;2.65;;;14.80;99.90;;;;;;12429592;28;20149;-89
2021/09/19 09:12:22;;;;;;;4.30;2.40;;;14.90;99.90;;;;;;12433766;28;20196;-89
2021/09/19 09:18:42;;;;;;;4.00;2.47;;;15.00;99.90;;;;;;12427268;28;20046;-89
2021/09/19 09:25:01;;;;;;;4.00;2.20;;;15.30;99.90;;;;;;12423824;28;20038;-89
2021/09/19 09:31:03;;;;;;;6.07;2.67;;;15.60;99.90;;;;;;12430748;28;20073;-89
2021/09/19 09:37:05;;;;;;;5.43;1.92;;;15.80;99.90;;;;;;12429318;28;21011;-90
2021/09/19 09:43:11;;;;;;;4.07;1.90;;;15.90;99.90;;;;;;12438449;28;20049;-90
2021/09/19 09:49:12;;;;;;;4.10;1.98;;;16.10;99.90;;;;;;12427166;28;20049;-88
2021/09/19 09:55:14;;;;;;;4.80;2.60;;;16.50;99.90;;;;;;12426814;28;21607;-89
2021/09/19 10:01:18;;;;;;;3.35;1.90;;;16.50;99.90;;;;;;12426944;28;20129;-89
2021/09/19 10:07:21;;;;;;;;;;;16.30;99.90;;;;;;12427335;28;20594;-89
2021/09/19 10:13:25;;;;;;;3.75;1.83;;;15.80;99.90;;;;;;12411834;28;19970;-90
2021/09/19 10:19:27;;;;;;;3.20;1.95;;;15.80;99.90;;;;;;12409489;28;20088;-88
2021/09/19 10:25:38;;;;;;;3.50;1.90;;;15.80;99.90;;;;;;12426712;28;20046;-89
2021/09/19 10:31:41;;;;;;;3.80;2.10;;;15.60;99.90;;;;;;12425024;28;20041;-88
2021/09/19 10:37:50;;;;;;;8.25;2.00;;;15.30;99.90;;;;;;12410266;28;20141;-88
2021/09/19 10:43:55;;;;;;;5.63;1.85;;;15.20;99.90;;;;;;12404397;28;20045;-89
2021/09/19 10:50:26;;;;;;;3.35;1.90;;;15.20;99.90;;;;;;12397824;28;20402;-89
2021/09/19 10:56:29;;;;;;;6.38;2.10;;;15.00;99.90;;;;;;12393723;28;21272;-89
2021/09/19 11:02:31;;;;;;;3.63;1.90;;;14.90;99.90;;;;;;12404288;28;20501;-89
2021/09/19 11:08:40;;;;;;;4.50;1.80;;;14.80;99.90;;;;;;12390976;28;20888;-89
2021/09/19 11:15:03;;;;;;;2.70;1.77;;;14.90;99.90;;;;;;12386325;28;20045;-89
2021/09/19 11:21:21;;;;;;;3.47;2.10;;;14.80;99.90;;;;;;12513670;28;20717;-37
2021/09/19 11:27:24;;;;;;;2.97;1.70;;;14.70;99.90;;;;;;12511549;28;20045;-40
2021/09/19 11:33:29;;;;;;;4.67;2.37;;;14.70;99.90;;;;;;12509081;28;20136;-37
2021/09/19 11:39:33;;;;;;;4.65;1.90;;;14.70;99.90;;;;;;12509172;28;20315;-40
2021/09/19 11:45:38;;;;;;;3.67;1.80;;;14.70;99.90;;;;;;12509201;28;20049;-41
2021/09/19 11:51:42;;;;;;;4.45;1.90;;;14.70;99.90;;;;;;12509934;28;20072;-41
2021/09/19 11:57:44;;;;;;;2.78;1.80;;;14.70;99.90;;;;;;12506284;28;20107;-37
2021/09/19 12:03:47;;;;;;;4.85;2.78;;;14.60;99.90;;;;;;12510510;28;20045;-41
2021/09/19 12:09:51;;;;;;;3.67;2.25;;;14.70;99.90;;;;;;12510734;28;20056;-42
2021/09/19 12:16:11;;;;;;;3.63;2.28;;;14.80;99.90;;;;;;12504130;28;20477;-37
2021/09/19 12:22:20;;;;;;;4.10;2.65;;;14.90;99.90;;;;;;12511043;28;20577;-35
2021/09/19 12:28:34;;;;;;;4.53;2.75;;;14.90;99.90;;;;;;12496300;28;20053;-39
2021/09/19 12:34:37;;;;;;;4.22;2.53;;;14.90;99.90;;;;;;12464533;28;20163;-39
2021/09/19 12:40:41;;;;;;;5.13;3.05;;;14.80;99.90;;;;;;12474703;28;20107;-38
2021/09/19 12:46:51;;;;;;;3.72;2.40;;;14.70;99.90;;;;;;12475217;28;20515;-39
2021/09/19 12:52:58;;;;;;;4.15;2.20;;;14.80;99.90;;;;;;12475692;28;20041;-35
2021/09/19 12:59:04;;;;;;;4.28;2.50;;;14.70;99.90;;;;;;12473367;28;20132;-38
2021/09/19 13:05:07;;;;;;;3.85;2.20;;;14.60;99.90;;;;;;12475440;28;20056;-38
2021/09/19 13:11:12;;;;;;;4.07;2.50;;;14.60;99.90;;;;;;12474196;28;20045;-35
2021/09/19 13:17:20;;;;;;;5.30;2.67;;;14.60;99.90;;;;;;12472051;28;20069;-36
2021/09/19 13:23:23;;;;;;;4.95;2.47;;;14.50;99.90;;;;;;12471615;28;20048;-39
2021/09/19 13:29:26;;;;;;;4.93;2.80;;;14.40;99.90;;;;;;12472461;28;20512;-36
2021/09/19 13:35:29;;;;;;;4.97;3.17;;;14.50;99.90;;;;;;12470492;28;20103;-40
2021/09/19 13:41:31;;;;;;;3.92;2.88;;;14.60;99.90;;;;;;12467915;28;20506;-39
2021/09/19 13:47:35;;;;;;;5.90;3.70;;;14.70;99.90;;;;;;12473072;28;20140;-39
2021/09/19 13:53:40;;;;;;;6.00;3.50;;;14.60;99.90;;;;;;12476975;28;20049;-37
2021/09/19 13:59:41;;;;;;;4.67;3.50;;;14.60;99.90;;;;;;12475056;28;20041;-39
2021/09/19 14:05:45;;;;;;;4.40;3.38;;;14.60;99.90;;;;;;12480199;28;20053;-39
2021/09/19 14:11:48;;;;;;;4.90;3.37;;;14.60;99.90;;;;;;12474800;28;20122;-39
2021/09/19 14:17:51;;;;;;;4.20;2.92;;;14.30;99.90;;;;;;12481278;28;20656;-35
2021/09/19 14:23:54;;;;;;;5.03;3.07;;;14.40;99.90;;;;;;12444785;28;20145;-39
2021/09/19 14:29:56;;;;;;;5.57;3.17;;;14.40;99.90;;;;;;12428589;28;20085;-35
2021/09/19 14:36:02;;;;;;;6.00;3.22;;;14.30;99.90;;;;;;12477444;28;20056;-35
2021/09/19 14:42:07;;;;;;;4.60;3.10;;;14.30;99.90;;;;;;12477913;28;20080;-38
2021/09/19 14:48:16;;;;;;;3.95;2.90;;;14.40;99.90;;;;;;12478110;28;20446;-41
2021/09/19 14:54:27;;;;;;;4.22;2.83;;;14.40;99.90;;;;;;12475580;28;20049;-36
2021/09/19 15:00:32;;;;;;;5.95;3.30;;;14.40;99.90;;;;;;12476206;28;20486;-35
2021/09/19 15:06:35;;;;;;;6.88;3.50;;;14.30;99.90;;;;;;12478430;28;20041;-35
2021/09/19 15:12:40;;;;;;;7.47;3.33;;;14.20;99.90;;;;;;12476460;28;20041;-35
2021/09/19 15:18:43;;;;;;;8.18;3.90;;;14.10;99.90;;;;;;12475155;28;20392;-35
2021/09/19 15:24:49;;;;;;;8.20;3.20;;;14.10;99.90;;;;;;12472183;28;20049;-39
2021/09/19 15:30:55;;;;;;;6.80;3.50;;;14.10;99.90;;;;;;12479185;28;20410;-37
2021/09/19 15:36:58;;;;;;;4.85;3.30;;;14.20;99.90;;;;;;12478027;28;20050;-37
2021/09/19 15:43:01;;;;;;;6.07;3.63;;;14.10;99.90;;;;;;12475343;28;20491;-35
2021/09/19 15:49:04;;;;;;;6.70;3.40;;;14.10;99.90;;;;;;12477398;28;20080;-39
2021/09/19 15:55:10;;;;;;;5.32;3.53;;;14.00;99.90;;;;;;12487356;28;20140;-35
2021/09/19 16:01:14;;;;;;;5.75;3.35;;;14.00;99.90;;;;;;12474318;28;20120;-39
2021/09/19 16:07:17;;;;;;;6.05;3.40;;;14.00;99.90;;;;;;12484132;28;20175;-38
2021/09/19 16:13:21;;;;;;;7.43;3.70;;;14.00;99.90;;;;;;12486773;28;20045;-39
2021/09/19 16:19:26;;;;;;;6.88;3.45;;;13.80;99.90;;;;;;12482811;28;20548;-40
2021/09/19 16:25:31;;;;;;;7.15;3.22;;;13.80;99.90;;;;;;12484549;28;20050;-35
2021/09/19 16:31:35;;;;;;;5.45;3.50;;;13.70;99.90;;;;;;12485600;28;20823;-39
2021/09/19 16:37:38;;;;;;;5.20;2.92;;;13.70;99.90;;;;;;12487429;28;20057;-39
2021/09/19 16:43:40;;;;;;;4.65;3.03;;;13.70;99.90;;;;;;12483765;28;20530;-39
2021/09/19 16:49:48;;;;;;;4.90;3.13;;;13.80;99.90;;;;;;12484495;28;20086;-35
2021/09/19 16:55:51;;;;;;;6.65;3.03;;;13.70;99.90;;;;;;12480276;28;20243;-39
2021/09/19 17:01:53;;;;;;;5.90;2.95;;;13.80;99.90;;;;;;12473473;28;20134;-39
2021/09/19 17:07:56;;;;;;;5.95;2.90;;;13.70;99.90;;;;;;12479181;28;20662;-38
2021/09/19 17:13:58;;;;;;;4.10;2.65;;;13.60;99.90;;;;;;12473666;28;20056;-35
2021/09/19 17:20:00;;;;;;;5.07;2.83;;;13.60;99.90;;;;;;12476236;28;20478;-35
2021/09/19 17:26:03;;;;;;;3.92;2.88;;;13.70;99.90;;;;;;12475517;28;20080;-35
2021/09/19 17:32:09;;;;;;;5.22;2.78;;;13.70;99.90;;;;;;12474259;28;20054;-36
2021/09/19 17:38:11;;;;;;;6.65;2.75;;;13.60;99.90;;;;;;12476980;28;20509;-41
2021/09/19 17:44:13;;;;;;;5.65;3.05;;;13.60;99.90;;;;;;12474101;28;20090;-38
2021/09/19 17:50:15;;;;;;;8.10;3.33;;;13.50;99.90;;;;;;12478908;28;20081;-39
2021/09/19 17:56:16;;;;;;;5.95;3.33;;;13.50;99.90;;;;;;12477411;28;20053;-40
2021/09/19 18:02:19;;;;;;;6.75;3.28;;;13.40;99.90;;;;;;12474384;28;20110;-35
2021/09/19 18:08:21;;;;;;;6.15;3.28;;;13.50;99.90;;;;;;12477327;28;20080;-35
2021/09/19 18:14:23;;;;;;;7.72;3.38;;;13.50;99.90;;;;;;12473637;28;20103;-39
2021/09/19 18:20:25;;;;;;;6.40;3.03;;;13.50;99.90;;;;;;12470160;28;20556;-37
2021/09/19 18:26:28;;;;;;;6.55;3.70;;;13.50;99.90;;;;;;12469336;28;20414;-36
2021/09/19 18:32:30;;;;;;;5.93;3.70;;;13.50;99.90;;;;;;12466476;28;20426;-35
2021/09/19 18:38:32;;;;;;;6.63;3.80;;;13.50;99.90;;;;;;12471480;28;20392;-40
2021/09/19 18:44:34;;;;;;;6.05;3.08;;;13.30;99.90;;;;;;12475628;28;20041;-35
2021/09/19 18:50:38;;;;;;;4.75;2.80;;;13.40;99.90;;;;;;12472973;28;20103;-39
2021/09/19 18:56:39;;;;;;;4.35;2.90;;;13.40;99.90;;;;;;12472744;28;20045;-39
2021/09/19 19:02:41;;;;;;;5.63;3.08;;;13.40;99.90;;;;;;12472986;28;20046;-35
2021/09/19 19:08:44;;;;;;;5.28;3.33;;;13.40;99.90;;;;;;12474607;28;20087;-36
2021/09/19 19:14:46;;;;;;;6.22;3.33;;;13.40;99.90;;;;;;12472812;28;20085;-35
2021/09/19 19:20:48;;;;;;;6.82;3.85;;;13.30;99.90;;;;;;12475251;28;20049;-40
2021/09/19 19:26:50;;;;;;;6.95;3.70;;;13.30;99.90;;;;;;12470698;28;20403;-35
2021/09/19 19:32:52;;;;;;;6.95;3.20;;;13.10;99.90;;;;;;12470022;28;20049;-40
2021/09/19 19:38:54;;;;;;;5.15;3.28;;;13.20;99.90;;;;;;12472586;28;20102;-39
2021/09/19 19:44:56;;;;;;;7.95;3.38;;;13.30;99.90;;;;;;12480904;28;20118;-36
2021/09/19 19:50:58;;;;;;;5.43;3.55;;;13.40;99.90;;;;;;12478888;28;20132;-42
2021/09/19 19:56:59;;;;;;;5.72;3.50;;;13.40;99.90;;;;;;12480561;28;20049;-35
2021/09/19 20:03:01;;;;;;;6.93;3.88;;;13.40;99.90;;;;;;12478470;28;21006;-39
2021/09/19 20:09:06;;;;;;;8.05;4.00;;;13.20;99.90;;;;;;12480796;28;20045;-40
2021/09/19 20:15:10;;;;;;;6.78;3.95;;;13.20;99.90;;;;;;12482080;28;20511;-40
2021/09/19 20:21:12;;;;;;;9.40;4.20;;;13.10;99.90;;;;;;12478768;28;20107;-35
2021/09/19 20:27:14;;;;;;;8.63;3.85;;;12.90;99.90;;;;;;12480934;28;20461;-35
2021/09/19 20:33:17;;;;;;;7.82;4.30;;;12.90;99.90;;;;;;12479981;28;20045;-38
2021/09/19 20:39:20;;;;;;;7.30;3.97;;;12.90;99.90;;;;;;12479904;28;20037;-39
2021/09/19 20:45:22;;;;;;;9.07;4.68;;;12.90;99.90;;;;;;12478017;28;20053;-35
2021/09/19 20:51:25;;;;;;;8.82;4.88;;;12.90;99.90;;;;;;12478282;28;20041;-35
2021/09/19 20:57:27;;;;;;;8.45;4.50;;;12.90;99.90;;;;;;12478842;28;20041;-35
2021/09/19 21:03:29;;;;;;;5.95;3.97;;;12.80;99.90;;;;;;12476993;28;20544;-39
2021/09/19 21:09:31;;;;;;;8.02;4.28;;;12.80;99.90;;;;;;12476912;28;20061;-35
2021/09/19 21:15:33;;;;;;;6.30;3.70;;;12.80;99.90;;;;;;12475697;28;20061;-39
2021/09/19 21:21:38;;;;;;;7.47;4.18;;;12.80;99.90;;;;;;12477127;28;20091;-35
2021/09/19 21:27:40;;;;;;;5.93;3.35;;;12.90;99.90;;;;;;12479405;28;20049;-39
2021/09/19 21:33:42;;;;;;;8.35;3.72;;;12.90;99.90;;;;;;12476694;28;20049;-35
2021/09/19 21:39:43;;;;;;;6.90;3.83;;;12.90;99.90;;;;;;12476607;28;20054;-35
2021/09/19 21:45:45;;;;;;;9.05;3.95;;;12.90;99.90;;;;;;12478423;28;20103;-39
2021/09/19 21:51:47;;;;;;;9.35;4.15;;;12.90;99.90;;;;;;12477849;28;20042;-41
2021/09/19 21:57:49;;;;;;;7.10;3.88;;;12.90;99.90;;;;;;12476519;28;20119;-39
2021/09/19 22:03:51;;;;;;;7.68;4.38;;;12.90;99.90;;;;;;12472707;28;20049;-35
2021/09/19 22:09:54;;;;;;;9.63;4.47;;;13.00;99.90;;;;;;12474559;28;20104;-39
2021/09/19 22:15:56;;;;;;;5.93;3.85;;;12.90;99.90;;;;;;12474898;28;20049;-35
2021/09/19 22:22:00;;;;;;;7.30;3.92;;;13.00;99.90;;;;;;12473498;28;20049;-36
2021/09/19 22:28:04;;;;;;;6.72;3.78;;;13.00;99.90;;;;;;12472922;28;20081;-35
2021/09/19 22:34:08;;;;;;;7.97;4.88;;;12.80;99.90;;;;;;12472264;28;20056;-35
2021/09/19 22:40:14;;;;;;;5.87;4.10;;;12.80;99.90;;;;;;12476829;28;20050;-39
2021/09/19 22:46:15;;;;;;;6.43;4.32;;;12.80;99.90;;;;;;12473925;28;20122;-35
2021/09/19 22:52:17;;;;;;;8.43;3.83;;;12.80;99.90;;;;;;12472485;28;20045;-35
2021/09/19 22:58:19;;;;;;;7.38;4.00;;;12.80;99.90;;;;;;12472260;28;20045;-35
2021/09/19 23:04:21;;;;;;;16.08;4.35;;;12.90;99.90;;;;;;12471421;28;20046;-35
2021/09/19 23:10:23;;;;;;;9.02;4.47;;;12.80;99.90;;;;;;12473422;28;20453;-35
2021/09/19 23:16:25;;;;;;;6.43;3.53;;;12.80;99.90;;;;;;12472301;28;20072;-38
2021/09/19 23:22:27;;;;;;;6.68;3.60;;;12.70;99.90;;;;;;12472498;28;20053;-35
2021/09/19 23:28:29;;;;;;;6.90;4.10;;;12.70;99.90;;;;;;12472248;28;20050;-39
2021/09/19 23:34:31;;;;;;;8.35;4.18;;;12.80;99.90;;;;;;12471043;28;20114;-35
2021/09/19 23:40:33;;;;;;;9.68;3.55;;;12.80;99.90;;;;;;12472416;28;20111;-35
2021/09/19 23:46:35;;;;;;;6.72;4.22;;;12.60;99.90;;;;;;12469335;28;21145;-35
2021/09/19 23:52:37;;;;;;;8.13;4.35;;;12.60;99.90;;;;;;12473312;28;20057;-35
2021/09/19 23:58:38;;;;;;;9.38;4.15;;;12.50;99.90;;;;;;12469824;28;20411;-36
